Aviation Digital Data Service (ADDS)

Output produced by TAFs form (0154 UTC 01 July 2015)
found at http://aviationweather.gov/adds/tafs/
 
KMTJ 302323Z 0100/0124 VRB05KT P6SM SCT100 SCT200 
     FM010300 14006KT P6SM SCT100 SCT200 
     FM011900 32007KT P6SM FEW110 SCT200